createdAt,value
2018-10-16T00:01:36.225Z,17.74
2018-10-16T00:04:39.299Z,17.33
2018-10-16T00:07:42.230Z,17.62
2018-10-16T00:10:46.247Z,17.42
2018-10-16T00:13:49.149Z,17.36
2018-10-16T00:16:52.117Z,17.57
2018-10-16T00:19:55.076Z,17.61
2018-10-16T00:22:57.990Z,17.61
2018-10-16T00:26:00.939Z,17.73
2018-10-16T00:29:03.890Z,17.82
2018-10-16T00:32:06.825Z,17.66
2018-10-16T00:35:10.261Z,17.72
2018-10-16T00:38:13.213Z,17.79
2018-10-16T00:41:16.139Z,17.47
2018-10-16T00:44:19.054Z,17.18
2018-10-16T00:47:21.978Z,17.02
2018-10-16T00:50:24.932Z,17.43
2018-10-16T00:53:27.866Z,17.41
2018-10-16T00:56:30.786Z,17.42
2018-10-16T00:59:33.713Z,17.58
2018-10-16T01:02:36.953Z,17.48
2018-10-16T01:05:39.853Z,17.70
2018-10-16T01:08:42.740Z,17.68
2018-10-16T01:11:45.712Z,17.64
2018-10-16T01:14:48.605Z,17.71
2018-10-16T01:17:51.577Z,17.30
2018-10-16T01:20:54.548Z,17.41
2018-10-16T01:23:57.545Z,17.66
2018-10-16T01:27:00.539Z,17.64
2018-10-16T01:30:03.630Z,17.89
2018-10-16T01:33:06.585Z,17.55
2018-10-16T01:36:10.664Z,17.78
2018-10-16T01:39:13.580Z,17.71
2018-10-16T01:42:16.502Z,17.93
2018-10-16T01:45:19.473Z,17.88
2018-10-16T01:48:22.418Z,17.93
2018-10-16T01:51:25.373Z,17.84
2018-10-16T01:54:28.267Z,17.82
2018-10-16T01:57:31.197Z,17.64
2018-10-16T02:00:34.158Z,17.92
2018-10-16T02:03:37.093Z,17.84
2018-10-16T02:06:40.129Z,17.86
2018-10-16T02:09:43.006Z,17.96
2018-10-16T02:12:45.963Z,17.91
2018-10-16T02:15:48.961Z,18.03
2018-10-16T02:18:51.940Z,17.91
2018-10-16T02:21:54.893Z,17.78
2018-10-16T02:24:57.842Z,17.77
2018-10-16T02:28:00.959Z,17.82
2018-10-16T02:31:03.966Z,17.56
2018-10-16T02:34:06.884Z,17.71
2018-10-16T02:37:10.017Z,17.67
2018-10-16T02:40:12.943Z,17.79
2018-10-16T02:43:15.885Z,17.71
2018-10-16T02:46:18.839Z,17.85
2018-10-16T02:49:21.778Z,17.73
2018-10-16T02:52:24.722Z,17.90
2018-10-16T02:55:27.615Z,17.82
2018-10-16T02:58:30.521Z,17.89
2018-10-16T03:01:33.395Z,17.87
2018-10-16T03:04:36.400Z,17.87
2018-10-16T03:07:39.329Z,17.82
2018-10-16T03:10:42.226Z,17.88
2018-10-16T03:13:45.126Z,17.78
2018-10-16T03:16:48.167Z,17.82
2018-10-16T03:19:51.170Z,17.84
2018-10-16T03:22:54.137Z,17.92
2018-10-16T03:25:57.034Z,17.91
2018-10-16T03:29:00.020Z,17.73
2018-10-16T03:32:02.938Z,17.77
2018-10-16T03:35:06.546Z,17.75
2018-10-16T03:38:09.467Z,17.79
2018-10-16T03:41:12.362Z,17.74
2018-10-16T03:44:15.285Z,17.93
2018-10-16T03:47:18.265Z,17.78
2018-10-16T03:50:21.174Z,17.73
2018-10-16T03:53:24.085Z,17.78
2018-10-16T03:56:27.241Z,17.80
2018-10-16T03:59:30.203Z,17.89
2018-10-16T04:02:33.157Z,17.84
2018-10-16T04:05:36.141Z,17.80
2018-10-16T04:08:39.069Z,17.67
2018-10-16T04:11:41.994Z,17.63
2018-10-16T04:14:44.879Z,17.59
2018-10-16T04:17:47.849Z,17.64
2018-10-16T04:20:50.805Z,17.56
2018-10-16T04:23:53.701Z,17.67
2018-10-16T04:26:56.626Z,17.69
2018-10-16T04:29:59.534Z,17.59
2018-10-16T04:33:02.429Z,17.66
2018-10-16T04:36:05.573Z,17.64
2018-10-16T04:39:12.797Z,17.76
2018-10-16T04:42:15.752Z,17.71
2018-10-16T04:45:18.623Z,17.89
2018-10-16T04:48:21.897Z,17.79
2018-10-16T04:51:24.758Z,17.60
2018-10-16T04:54:27.653Z,17.48
2018-10-16T04:57:30.593Z,17.71
2018-10-16T05:00:33.617Z,17.66
2018-10-16T05:03:36.690Z,17.71
2018-10-16T05:06:39.594Z,17.78
2018-10-16T05:09:42.526Z,17.65
2018-10-16T05:12:45.484Z,17.73
2018-10-16T05:15:48.401Z,17.74
2018-10-16T05:18:51.468Z,17.74
2018-10-16T05:21:54.417Z,17.79
2018-10-16T05:24:57.325Z,17.68
2018-10-16T05:28:00.238Z,17.68
2018-10-16T05:31:03.385Z,17.70
2018-10-16T05:34:07.238Z,17.65
2018-10-16T05:37:10.110Z,17.55
2018-10-16T05:40:13.036Z,17.46
2018-10-16T05:43:15.886Z,17.30
2018-10-16T05:46:18.885Z,17.35
2018-10-16T05:49:21.882Z,17.28
2018-10-16T05:52:24.833Z,17.35
2018-10-16T05:55:27.834Z,17.53
2018-10-16T05:58:30.774Z,17.53
2018-10-16T06:01:33.682Z,17.54
2018-10-16T06:04:36.593Z,17.53
2018-10-16T06:07:39.795Z,17.47
2018-10-16T06:10:42.735Z,17.51
2018-10-16T06:13:45.724Z,17.58
2018-10-16T06:16:48.724Z,17.49
2018-10-16T06:19:51.626Z,17.55
2018-10-16T06:22:55.304Z,17.54
2018-10-16T06:25:58.281Z,17.60
2018-10-16T06:29:01.302Z,17.58
2018-10-16T06:32:04.429Z,17.59
2018-10-16T06:35:08.449Z,17.52
2018-10-16T06:38:11.388Z,17.56
2018-10-16T06:41:14.420Z,17.46
2018-10-16T06:44:17.222Z,17.54
2018-10-16T06:47:20.207Z,17.70
2018-10-16T06:50:23.026Z,17.50
2018-10-16T06:53:26.011Z,17.69
2018-10-16T06:56:29.032Z,17.68
2018-10-16T06:59:31.977Z,17.64
2018-10-16T07:02:34.884Z,17.58
2018-10-16T07:05:37.794Z,17.61
2018-10-16T07:08:40.795Z,17.69
2018-10-16T07:11:43.773Z,17.62
2018-10-16T07:14:46.764Z,19.67
2018-10-16T07:17:49.721Z,18.37
2018-10-16T07:20:52.685Z,18.00
2018-10-16T07:23:55.706Z,17.57
2018-10-16T07:26:58.586Z,17.40
2018-10-16T07:30:01.542Z,17.46
2018-10-16T07:33:04.489Z,17.39
2018-10-16T07:36:07.395Z,17.35
2018-10-16T07:39:11.913Z,17.48
2018-10-16T07:42:14.840Z,17.43
2018-10-16T07:45:17.766Z,17.45
2018-10-16T07:48:20.761Z,17.43
2018-10-16T07:51:23.661Z,17.40
2018-10-16T07:54:26.574Z,17.41
2018-10-16T07:57:29.449Z,17.28
2018-10-16T08:00:32.571Z,17.28
2018-10-16T08:03:35.636Z,17.46
2018-10-16T08:06:38.741Z,17.53
2018-10-16T08:09:41.903Z,17.49
2018-10-16T08:12:45.064Z,17.55
2018-10-16T08:15:48.348Z,17.64
2018-10-16T08:18:51.683Z,17.64
2018-10-16T08:21:55.173Z,17.68
2018-10-16T08:24:58.192Z,17.62
2018-10-16T08:28:01.465Z,17.68
2018-10-16T08:31:04.805Z,17.68
2018-10-16T08:34:07.872Z,17.71
2018-10-16T08:37:13.469Z,17.71
2018-10-16T08:40:16.471Z,17.78
2018-10-16T08:43:42.388Z,17.81
2018-10-16T08:47:02.795Z,17.84
2018-10-16T08:50:23.273Z,17.87
2018-10-16T08:53:26.230Z,17.91
2018-10-16T08:56:29.286Z,17.94
2018-10-16T08:59:32.232Z,18.00
2018-10-16T09:02:35.149Z,18.11
2018-10-16T09:05:38.080Z,18.23
2018-10-16T09:08:41.032Z,18.29
2018-10-16T09:11:45.184Z,18.33
2018-10-16T09:14:48.122Z,18.50
2018-10-16T09:17:51.085Z,18.60
2018-10-16T09:20:54.445Z,19.36
2018-10-16T09:23:57.321Z,19.81
2018-10-16T09:27:00.265Z,19.38
2018-10-16T09:30:03.668Z,19.15
2018-10-16T09:33:06.585Z,19.10
2018-10-16T09:36:09.526Z,19.09
2018-10-16T09:39:12.529Z,19.23
2018-10-16T09:42:15.478Z,19.27
2018-10-16T09:45:18.413Z,19.27
2018-10-16T09:48:22.295Z,19.29
2018-10-16T09:51:26.825Z,19.33
2018-10-16T09:54:29.742Z,19.35
2018-10-16T09:57:32.649Z,19.35
2018-10-16T10:00:41.178Z,19.34
2018-10-16T10:03:44.089Z,19.46
2018-10-16T10:06:47.037Z,19.42
2018-10-16T10:09:49.903Z,19.46
2018-10-16T10:12:52.861Z,19.57
2018-10-16T10:15:55.809Z,19.54
2018-10-16T10:18:58.753Z,19.53
2018-10-16T10:22:01.715Z,19.53
2018-10-16T10:25:05.503Z,19.71
2018-10-16T10:28:08.434Z,20.21
2018-10-16T10:31:11.370Z,20.22
2018-10-16T10:34:14.282Z,20.36
2018-10-16T10:37:17.200Z,20.50
2018-10-16T10:40:20.137Z,20.69
2018-10-16T10:43:23.017Z,20.78
2018-10-16T10:46:25.971Z,20.94
2018-10-16T10:49:28.928Z,21.04
2018-10-16T10:52:31.859Z,21.33
2018-10-16T10:55:34.796Z,21.35
2018-10-16T10:58:37.731Z,21.50
2018-10-16T11:01:40.677Z,21.71
2018-10-16T11:04:43.632Z,21.84
2018-10-16T11:07:46.567Z,22.08
2018-10-16T11:10:49.500Z,22.09
2018-10-16T11:13:52.432Z,22.03
2018-10-16T11:16:55.361Z,22.08
2018-10-16T11:19:58.292Z,22.15
2018-10-16T11:23:01.386Z,22.29
2018-10-16T11:26:04.637Z,22.42
2018-10-16T11:29:07.590Z,22.30
2018-10-16T11:32:10.534Z,22.87
2018-10-16T11:35:14.144Z,22.76
2018-10-16T11:38:17.104Z,22.70
2018-10-16T11:41:20.030Z,22.58
2018-10-16T11:44:22.977Z,22.27
2018-10-16T11:47:25.866Z,22.27
2018-10-16T11:50:28.758Z,22.28
2018-10-16T11:53:31.674Z,22.62
2018-10-16T11:56:34.616Z,22.61
2018-10-16T11:59:37.514Z,23.26
2018-10-16T12:02:40.610Z,22.94
2018-10-16T12:05:43.478Z,23.24
2018-10-16T12:08:46.480Z,23.48
2018-10-16T12:11:50.836Z,23.22
2018-10-16T12:14:53.767Z,23.24
2018-10-16T12:18:06.833Z,23.38
2018-10-16T12:21:13.487Z,23.69
2018-10-16T12:24:16.459Z,23.51
2018-10-16T12:27:19.359Z,23.41
2018-10-16T12:30:22.309Z,23.65
2018-10-16T12:33:25.202Z,23.63
2018-10-16T12:36:28.169Z,23.70
2018-10-16T12:39:31.112Z,23.82
2018-10-16T12:42:34.012Z,23.94
2018-10-16T12:45:36.918Z,23.74
2018-10-16T12:48:39.838Z,24.06
2018-10-16T12:51:42.781Z,24.08
2018-10-16T12:54:45.749Z,24.17
2018-10-16T12:57:48.710Z,23.99
2018-10-16T13:00:51.688Z,24.21
2018-10-16T13:03:54.572Z,24.30
2018-10-16T13:07:02.064Z,24.18
2018-10-16T13:10:18.490Z,24.31
2018-10-16T13:13:21.425Z,24.53
2018-10-16T13:16:24.381Z,24.44
2018-10-16T13:19:27.309Z,24.40
2018-10-16T13:22:30.266Z,24.69
2018-10-16T13:25:33.143Z,25.00
2018-10-16T13:28:36.117Z,24.81
2018-10-16T13:31:39.037Z,24.85
2018-10-16T13:34:42.018Z,25.03
2018-10-16T13:37:45.624Z,24.84
2018-10-16T13:40:48.624Z,24.69
2018-10-16T13:43:51.541Z,24.77
2018-10-16T13:46:54.446Z,24.95
2018-10-16T13:49:57.346Z,24.90
2018-10-16T13:53:00.303Z,24.20
2018-10-16T13:56:03.278Z,23.69
2018-10-16T13:59:06.166Z,23.50
2018-10-16T14:02:09.085Z,23.63
2018-10-16T14:05:12.052Z,23.84
2018-10-16T14:08:15.058Z,23.84
2018-10-16T14:11:17.973Z,23.52
2018-10-16T14:14:20.889Z,23.50
2018-10-16T14:17:23.829Z,23.50
2018-10-16T14:20:26.806Z,23.78
2018-10-16T14:23:29.725Z,23.82
2018-10-16T14:26:32.672Z,23.70
2018-10-16T14:29:35.605Z,23.39
2018-10-16T14:32:38.825Z,23.08
2018-10-16T14:35:41.732Z,22.79
2018-10-16T14:38:44.632Z,22.58
2018-10-16T14:41:47.532Z,22.41
2018-10-16T14:44:50.409Z,22.28
2018-10-16T14:47:53.396Z,22.22
2018-10-16T14:50:56.304Z,22.15
2018-10-16T14:53:59.630Z,22.04
2018-10-16T14:57:02.621Z,21.90
2018-10-16T15:00:08.394Z,21.80
2018-10-16T15:03:11.322Z,21.79
2018-10-16T15:06:14.222Z,21.73
2018-10-16T15:09:17.171Z,21.67
2018-10-16T15:12:24.709Z,21.61
2018-10-16T15:15:27.664Z,21.53
2018-10-16T15:18:30.565Z,21.47
2018-10-16T15:21:33.504Z,21.37
2018-10-16T15:24:36.442Z,21.17
2018-10-16T15:27:39.353Z,21.16
2018-10-16T15:30:42.293Z,21.07
2018-10-16T15:33:45.209Z,21.00
2018-10-16T15:36:48.094Z,20.89
2018-10-16T15:39:51.014Z,20.95
2018-10-16T15:42:53.928Z,20.78
2018-10-16T15:45:56.909Z,20.77
2018-10-16T15:48:59.960Z,20.75
2018-10-16T15:52:02.893Z,20.70
2018-10-16T15:55:06.457Z,20.58
2018-10-16T15:58:09.516Z,20.53
2018-10-16T16:01:12.339Z,20.58
2018-10-16T16:04:15.333Z,20.37
2018-10-16T16:07:18.269Z,20.44
2018-10-16T16:10:21.201Z,20.41
2018-10-16T16:13:24.134Z,20.22
2018-10-16T16:16:27.056Z,20.20
2018-10-16T16:19:29.994Z,20.16
2018-10-16T16:22:32.924Z,20.10
2018-10-16T16:25:35.829Z,20.03
2018-10-16T16:28:38.726Z,20.08
2018-10-16T16:31:41.641Z,20.06
2018-10-16T16:34:44.494Z,20.10
2018-10-16T16:37:47.388Z,19.97
2018-10-16T16:40:50.275Z,19.89
2018-10-16T16:43:53.359Z,19.90
2018-10-16T16:46:56.145Z,19.82
2018-10-16T16:49:59.132Z,19.79
2018-10-16T16:53:02.164Z,19.82
2018-10-16T16:56:05.199Z,19.93
2018-10-16T16:59:08.129Z,19.90
2018-10-16T17:02:11.077Z,19.80
2018-10-16T17:05:14.500Z,19.80
2018-10-16T17:08:17.481Z,19.67
2018-10-16T17:11:20.418Z,19.62
2018-10-16T17:14:23.324Z,19.65
2018-10-16T17:17:26.228Z,19.56
2018-10-16T17:20:29.150Z,19.42
2018-10-16T17:23:32.115Z,19.30
2018-10-16T17:26:35.071Z,19.16
2018-10-16T17:29:37.949Z,19.08
2018-10-16T17:32:41.469Z,19.00
2018-10-16T17:35:44.397Z,18.96
2018-10-16T17:38:47.365Z,18.89
2018-10-16T17:41:50.344Z,18.84
2018-10-16T17:44:53.320Z,18.84
2018-10-16T17:47:56.352Z,18.94
2018-10-16T17:50:59.150Z,19.12
2018-10-16T17:54:01.994Z,19.03
2018-10-16T17:57:05.580Z,18.88
2018-10-16T18:00:13.027Z,18.83
2018-10-16T18:03:16.033Z,18.95
2018-10-16T18:06:18.826Z,18.93
2018-10-16T18:09:21.750Z,18.94
2018-10-16T18:12:25.488Z,18.81
2018-10-16T18:15:28.437Z,18.93
2018-10-16T18:18:31.400Z,19.00
2018-10-16T18:21:34.347Z,18.93
2018-10-16T18:24:37.281Z,18.85
2018-10-16T18:27:40.894Z,18.88
2018-10-16T18:30:43.908Z,18.89
2018-10-16T18:33:46.814Z,18.96
2018-10-16T18:36:49.737Z,18.86
2018-10-16T18:39:52.716Z,18.70
2018-10-16T18:42:55.673Z,18.70
2018-10-16T18:45:58.614Z,18.63
2018-10-16T18:49:01.553Z,18.77
2018-10-16T18:52:04.745Z,18.64
2018-10-16T18:55:09.486Z,18.69
2018-10-16T18:58:12.370Z,18.66
2018-10-16T19:01:15.282Z,18.75
2018-10-16T19:04:18.185Z,18.78
2018-10-16T19:07:21.110Z,18.63
2018-10-16T19:10:24.046Z,18.66
2018-10-16T19:13:26.946Z,18.56
2018-10-16T19:16:29.916Z,18.65
2018-10-16T19:19:32.859Z,18.55
2018-10-16T19:22:35.734Z,18.65
2018-10-16T19:25:38.632Z,18.62
2018-10-16T19:28:41.593Z,18.65
2018-10-16T19:31:44.504Z,18.73
2018-10-16T19:34:47.422Z,18.68
2018-10-16T19:37:50.425Z,18.78
2018-10-16T19:40:53.302Z,18.77
2018-10-16T19:43:56.241Z,18.71
2018-10-16T19:46:59.167Z,18.51
2018-10-16T19:50:02.169Z,18.52
2018-10-16T19:53:05.116Z,18.45
2018-10-16T19:56:08.046Z,18.55
2018-10-16T19:59:10.899Z,18.68
2018-10-16T20:02:13.858Z,18.38
2018-10-16T20:05:16.774Z,18.18
2018-10-16T20:08:19.738Z,18.23
2018-10-16T20:11:22.647Z,17.91
2018-10-16T20:14:25.677Z,18.26
2018-10-16T20:17:28.629Z,18.35
2018-10-16T20:20:31.518Z,18.29
2018-10-16T20:23:34.434Z,18.29
2018-10-16T20:26:37.414Z,18.18
2018-10-16T20:29:40.341Z,18.19
2018-10-16T20:32:43.311Z,18.12
2018-10-16T20:35:46.248Z,18.15
2018-10-16T20:38:49.199Z,18.06
2018-10-16T20:41:52.190Z,18.29
2018-10-16T20:44:55.096Z,18.07
2018-10-16T20:47:58.038Z,18.36
2018-10-16T20:51:00.969Z,18.56
2018-10-16T20:54:04.165Z,18.40
2018-10-16T20:57:07.128Z,18.25
2018-10-16T21:00:10.085Z,18.37
2018-10-16T21:03:13.019Z,18.32
2018-10-16T21:06:16.221Z,18.23
2018-10-16T21:09:18.945Z,18.00
2018-10-16T21:12:21.995Z,17.99
2018-10-16T21:15:24.928Z,18.18
2018-10-16T21:18:27.866Z,18.21
2018-10-16T21:21:30.941Z,18.23
2018-10-16T21:24:33.841Z,18.22
2018-10-16T21:27:36.839Z,18.41
2018-10-16T21:30:39.730Z,18.28
2018-10-16T21:33:42.697Z,18.14
2018-10-16T21:36:45.581Z,18.11
2018-10-16T21:39:48.556Z,18.05
2018-10-16T21:42:51.543Z,17.96
2018-10-16T21:45:54.440Z,17.88
2018-10-16T21:48:57.368Z,17.73
2018-10-16T21:52:00.258Z,17.89
2018-10-16T21:55:03.232Z,17.83
2018-10-16T21:58:06.256Z,17.85
2018-10-16T22:01:10.430Z,17.92
2018-10-16T22:04:13.266Z,17.82
2018-10-16T22:07:16.282Z,17.76
2018-10-16T22:10:19.599Z,17.79
2018-10-16T22:13:22.494Z,17.72
2018-10-16T22:16:25.488Z,17.58
2018-10-16T22:19:28.445Z,17.82
2018-10-16T22:22:31.362Z,17.83
2018-10-16T22:25:34.288Z,17.71
2018-10-16T22:28:37.250Z,17.51
2018-10-16T22:31:40.165Z,17.59
2018-10-16T22:34:43.083Z,17.53
2018-10-16T22:37:46.019Z,17.48
2018-10-16T22:40:48.954Z,17.76
2018-10-16T22:43:51.916Z,17.75
2018-10-16T22:46:54.853Z,17.60
2018-10-16T22:49:57.833Z,17.63
2018-10-16T22:53:00.789Z,17.45
2018-10-16T22:56:03.785Z,17.35
2018-10-16T22:59:06.736Z,17.30
2018-10-16T23:02:09.660Z,17.38
2018-10-16T23:05:12.662Z,17.25
2018-10-16T23:08:15.549Z,17.43
2018-10-16T23:11:18.583Z,17.40
2018-10-16T23:14:21.383Z,17.45
2018-10-16T23:17:24.376Z,17.40
2018-10-16T23:20:27.425Z,17.28
2018-10-16T23:23:30.317Z,17.33
2018-10-16T23:26:33.316Z,17.39
2018-10-16T23:29:36.208Z,17.21
2018-10-16T23:32:39.090Z,17.48
2018-10-16T23:35:41.997Z,17.46
2018-10-16T23:38:44.871Z,17.36
2018-10-16T23:41:47.828Z,17.21
2018-10-16T23:44:50.720Z,17.50
2018-10-16T23:47:53.689Z,17.56
2018-10-16T23:50:56.608Z,17.38
2018-10-16T23:53:59.606Z,17.47
2018-10-16T23:57:02.486Z,17.45
